Weather History for Clinton, IA

Change the Weather History Date:

Monday, September 16, 2013

  Actual Average Record
Temperature  
Mean Temperature 57 °F -  
Max Temperature 66 °F 73 °F 88 °F (1955)
Min Temperature 48 °F 53 °F 34 °F (1984)
Degree Days  
Heating Degree Days 8    
Growing Degree Days 7 (Base 50)    
Moisture  
Dew Point 47 °F    
Average Humidity 74    
Maximum Humidity 94    
Minimum Humidity 43    
Precipitation  
Precipitation 0.00 in - - ()
Sea Level Pressure  
Sea Level Pressure 30.33 in    
Wind  
Wind Speed 9 mph (ENE)    
Max Wind Speed 15 mph    
Max Gust Speed 20 mph    
Visibility 10 miles    
Events      
Averages and records for this station are not official NWS values.
T = Trace of Precipitation, MM = Missing Value Source: NWS Daily Summary

Daily Weather History Graph

Daily Weather History Graph

Search for Another Location

Airport:

Trip Planner

Search our weather history database for the weather conditions in past years. The results will help you decide how hot, cold, wet, or windy it might be!

Date:

Astronomy

Sep. 16, 2013 Rise Set
Actual Time 6:42 AM CDT 7:08 PM CDT
Civil Twilight 6:14 AM CDT 7:36 PM CDT
Nautical Twilight 5:41 AM CDT 8:09 PM CDT
Astronomical Twilight 5:08 AM CDT 8:42 PM CDT
Moon 5:19 PM CDT (9/16) 3:26 AM CDT (9/16)
Length of Visible Light 13h 21m
Length of Day
12h 25m
Waxing Gibbous, 90% of the Moon is Illuminated
Sep 16
Waxing Gibbous
Sep 19
Full
Sep 26
Last Quarter
Oct 4
New
Oct 11
First Quarter

Hourly Weather History & Observations

Time (CDT) Temp. Dew Point Humidity Pressure Visibility Wind Dir Wind Speed Gust Speed Precip Events Conditions
12:15 AM 50.0 °F 48.2 °F 94% 30.23 in 5.0 mi North 5.8 mph - N/A   Clear
12:35 AM 50.0 °F 48.2 °F 94% 30.24 in 6.0 mi North 4.6 mph - N/A   Clear
12:55 AM 50.0 °F 48.2 °F 94% 30.24 in 7.0 mi North 5.8 mph - N/A   Clear
1:15 AM 50.0 °F 48.2 °F 94% 30.24 in 9.0 mi North 5.8 mph - N/A   Clear
1:35 AM 50.0 °F 48.2 °F 94% 30.26 in 9.0 mi North 5.8 mph - N/A   Clear
1:55 AM 48.2 °F 46.4 °F 93% 30.26 in 8.0 mi North 6.9 mph - N/A   Clear
2:15 AM 48.2 °F 46.4 °F 93% 30.26 in 8.0 mi NNE 6.9 mph - N/A   Clear
2:35 AM 50.0 °F 48.2 °F 94% 30.27 in 10.0 mi NNE 6.9 mph - N/A   Clear
2:55 AM 51.8 °F 48.2 °F 88% 30.27 in 10.0 mi NE 8.1 mph - N/A   Clear
3:15 AM 51.8 °F 50.0 °F 94% 30.28 in 10.0 mi NE 9.2 mph - N/A   Clear
3:35 AM 53.6 °F 51.8 °F 94% 30.28 in 10.0 mi NE 10.4 mph - N/A   Clear
3:55 AM 53.6 °F 51.8 °F 94% 30.28 in 10.0 mi NE 10.4 mph - N/A   Partly Cloudy
4:15 AM 55.4 °F 51.8 °F 88% 30.29 in 10.0 mi ENE 12.7 mph 19.6 mph N/A   Mostly Cloudy
4:35 AM 55.4 °F 51.8 °F 88% 30.30 in 10.0 mi ENE 15.0 mph - N/A   Overcast
4:55 AM 55.4 °F 51.8 °F 88% 30.30 in 10.0 mi NE 10.4 mph - N/A   Overcast
5:15 AM 55.4 °F 51.8 °F 88% 30.30 in 10.0 mi NE 10.4 mph - N/A   Overcast
5:35 AM 55.4 °F 51.8 °F 88% 30.31 in 10.0 mi NNE 11.5 mph - N/A   Overcast
5:55 AM 53.6 °F 51.8 °F 94% 30.32 in 10.0 mi NE 12.7 mph - N/A   Overcast
6:15 AM 53.6 °F 51.8 °F 94% 30.33 in 10.0 mi NE 11.5 mph - N/A   Overcast
6:35 AM 53.6 °F 50.0 °F 88% 30.33 in 10.0 mi NE 11.5 mph - N/A   Overcast
6:55 AM 53.6 °F 48.2 °F 82% 30.34 in 10.0 mi ENE 15.0 mph - N/A   Overcast
7:15 AM 51.8 °F 48.2 °F 88% 30.35 in 10.0 mi NE 11.5 mph - N/A   Mostly Cloudy
7:35 AM 51.8 °F 48.2 °F 88% 30.36 in 10.0 mi NE 12.7 mph - N/A   Scattered Clouds
7:55 AM 53.6 °F 48.2 °F 82% 30.37 in 10.0 mi NE 15.0 mph - N/A   Mostly Cloudy
8:15 AM 51.8 °F 48.2 °F 88% 30.38 in 10.0 mi NE 10.4 mph - N/A   Overcast
8:35 AM 51.8 °F 46.4 °F 82% 30.38 in 10.0 mi ENE 15.0 mph 19.6 mph N/A   Overcast
8:55 AM 51.8 °F 46.4 °F 82% 30.39 in 10.0 mi NE 13.8 mph - N/A   Overcast
9:15 AM 51.8 °F 46.4 °F 82% 30.40 in 10.0 mi NE 13.8 mph - N/A   Overcast
9:35 AM 53.6 °F 46.4 °F 77% 30.40 in 10.0 mi ENE 13.8 mph - N/A   Overcast
9:55 AM 53.6 °F 46.4 °F 77% 30.41 in 10.0 mi ENE 10.4 mph - N/A   Overcast
10:15 AM 53.6 °F 46.4 °F 77% 30.41 in 10.0 mi ENE 11.5 mph - N/A   Scattered Clouds
10:35 AM 55.4 °F 46.4 °F 72% 30.41 in 10.0 mi East 8.1 mph - N/A   Partly Cloudy
10:55 AM 55.4 °F 46.4 °F 72% 30.40 in 10.0 mi NE 8.1 mph - N/A   Scattered Clouds
11:15 AM 57.2 °F 46.4 °F 67% 30.41 in 10.0 mi ENE 5.8 mph - N/A   Clear
11:35 AM 57.2 °F 46.4 °F 67% 30.41 in 10.0 mi East 8.1 mph - N/A   Clear
11:55 AM 59.0 °F 46.4 °F 63% 30.40 in 10.0 mi ENE 9.2 mph - N/A   Clear
12:15 PM 60.8 °F 48.2 °F 63% 30.40 in 10.0 mi NE 8.1 mph - N/A   Clear
12:35 PM 60.8 °F 48.2 °F 63% 30.39 in 10.0 mi East 9.2 mph - N/A   Clear
12:55 PM 62.6 °F 48.2 °F 59% 30.39 in 10.0 mi NNE 9.2 mph - N/A   Clear
1:15 PM 62.6 °F 48.2 °F 59% 30.38 in 10.0 mi ENE 8.1 mph - N/A   Clear
1:35 PM 64.4 °F 48.2 °F 56% 30.38 in 10.0 mi East 9.2 mph - N/A   Clear
1:55 PM 64.4 °F 48.2 °F 56% 30.37 in 10.0 mi East 8.1 mph - N/A   Clear
2:15 PM 64.4 °F 46.4 °F 52% 30.37 in 10.0 mi NE 6.9 mph - N/A   Clear
2:35 PM 64.4 °F 46.4 °F 52% 30.36 in 10.0 mi NNE 5.8 mph - N/A   Clear
2:55 PM 64.4 °F 46.4 °F 52% 30.35 in 10.0 mi NE 4.6 mph - N/A   Clear
3:15 PM 66.2 °F 46.4 °F 49% 30.34 in 10.0 mi NE 8.1 mph - N/A   Clear
3:35 PM 66.2 °F 46.4 °F 49% 30.34 in 10.0 mi ENE 10.4 mph - N/A   Clear
3:55 PM 66.2 °F 46.4 °F 49% 30.33 in 10.0 mi ENE 5.8 mph - N/A   Clear
4:15 PM 66.2 °F 44.6 °F 46% 30.33 in 10.0 mi ENE 9.2 mph - N/A   Clear
4:35 PM 66.2 °F 44.6 °F 46% 30.32 in 10.0 mi NE 9.2 mph - N/A   Clear
4:55 PM 66.2 °F 44.6 °F 46% 30.32 in 10.0 mi ESE 6.9 mph - N/A   Clear
5:15 PM 66.2 °F 44.6 °F 46% 30.32 in 10.0 mi ENE 10.4 mph - N/A   Clear
5:35 PM 66.2 °F 42.8 °F 43% 30.31 in 10.0 mi East 6.9 mph - N/A   Clear
5:55 PM 66.2 °F 44.6 °F 46% 30.31 in 10.0 mi ENE 8.1 mph - N/A   Clear
6:15 PM 64.4 °F 44.6 °F 49% 30.31 in 10.0 mi ENE 8.1 mph - N/A   Clear
6:35 PM 62.6 °F 46.4 °F 55% 30.31 in 10.0 mi East 4.6 mph - N/A   Clear
6:55 PM 60.8 °F 48.2 °F 63% 30.31 in 10.0 mi ENE 4.6 mph - N/A   Clear
7:15 PM 57.2 °F 46.4 °F 67% 30.30 in 10.0 mi ENE 4.6 mph - N/A   Clear
7:35 PM 55.4 °F 46.4 °F 72% 30.30 in 10.0 mi NE 5.8 mph - N/A   Clear
7:55 PM 55.4 °F 46.4 °F 72% 30.31 in 10.0 mi ENE 4.6 mph - N/A   Clear
8:15 PM 53.6 °F 46.4 °F 77% 30.31 in 10.0 mi ENE 5.8 mph - N/A   Clear
8:35 PM 51.8 °F 46.4 °F 82% 30.31 in 10.0 mi NE 6.9 mph - N/A   Clear
8:55 PM 51.8 °F 44.6 °F 76% 30.31 in 10.0 mi ENE 6.9 mph - N/A   Clear
9:15 PM 50.0 °F 44.6 °F 82% 30.31 in 10.0 mi East 8.1 mph - N/A   Clear
9:35 PM 51.8 °F 44.6 °F 76% 30.32 in 10.0 mi East 9.2 mph - N/A   Clear
9:55 PM 53.6 °F 46.4 °F 77% 30.32 in 10.0 mi East 10.4 mph - N/A   Clear
10:15 PM 53.6 °F 46.4 °F 77% 30.32 in 10.0 mi ESE 12.7 mph - N/A   Clear
10:35 PM 53.6 °F 46.4 °F 77% 30.32 in 10.0 mi ESE 13.8 mph - N/A   Clear
10:55 PM 53.6 °F 46.4 °F 77% 30.33 in 10.0 mi ESE 12.7 mph - N/A   Clear
11:15 PM 53.6 °F 46.4 °F 77% 30.33 in 10.0 mi ESE 13.8 mph 17.3 mph N/A   Clear
11:35 PM 53.6 °F 46.4 °F 77% 30.34 in 10.0 mi ESE 11.5 mph - N/A   Clear
11:55 PM 51.8 °F 44.6 °F 76% 30.34 in 10.0 mi East 10.4 mph - N/A   Clear